Time;durP1;ratioP1;P1;durP2;ratioP2;P2;SDS_P1;SDS_P2;PMS_P1;PMS_P2;Temp;Humidity;BMP_temperature;BMP_pressure;BME280_temperature;BME280_humidity;BME280_pressure;Samples;Min_cycle;Max_cycle;Signal;HPM_P1;HPM_P2
2023/03/21 00:00:56;;;;;;;9.35;5.20;;;10.10;1.00;;;;;;7368695;19;20078;-74
2023/03/21 00:03:27;;;;;;;7.72;5.70;;;10.10;1.00;;;;;;7370176;19;20202;-74
2023/03/21 00:06:00;;;;;;;9.57;5.10;;;10.20;1.00;;;;;;7394907;19;20060;-74
2023/03/21 00:08:30;;;;;;;6.50;5.05;;;10.20;1.00;;;;;;7372680;19;20013;-74
2023/03/21 00:11:00;;;;;;;10.02;5.15;;;10.10;1.00;;;;;;7369592;19;20049;-74
2023/03/21 00:13:32;;;;;;;8.50;5.70;;;10.10;1.00;;;;;;7360193;19;20018;-75
2023/03/21 00:16:14;;;;;;;7.53;5.43;;;10.10;1.00;;;;;;7372613;19;20078;-75
2023/03/21 00:19:05;;;;;;;10.27;5.82;;;10.10;1.00;;;;;;7370434;19;20081;-75
2023/03/21 00:21:37;;;;;;;9.57;4.95;;;10.10;1.00;;;;;;7370479;19;20081;-75
2023/03/21 00:24:27;;;;;;;10.65;5.60;;;10.10;1.00;;;;;;7370372;19;20077;-74
2023/03/21 00:26:57;;;;;;;9.65;5.30;;;10.10;1.00;;;;;;7392517;19;20025;-75
2023/03/21 00:29:48;;;;;;;9.32;5.65;;;10.00;1.00;;;;;;7368406;19;20375;-76
2023/03/21 00:32:18;;;;;;;11.07;5.28;;;10.00;1.00;;;;;;7371824;19;20010;-76
2023/03/21 00:34:48;;;;;;;8.05;5.18;;;10.00;1.00;;;;;;7369383;19;20014;-76
2023/03/21 00:37:33;;;;;;;10.38;5.80;;;10.00;1.00;;;;;;7372681;19;20007;-76
2023/03/21 00:40:07;;;;;;;12.68;5.88;;;10.00;1.00;;;;;;7367551;19;20018;-76
2023/03/21 00:42:52;;;;;;;8.05;4.60;;;10.00;1.00;;;;;;7368215;19;20011;-76
2023/03/21 00:45:21;;;;;;;8.18;4.95;;;10.00;1.00;;;;;;7370546;19;20017;-76
2023/03/21 00:47:51;;;;;;;8.80;5.15;;;10.00;1.00;;;;;;7393051;19;20522;-76
2023/03/21 00:50:21;;;;;;;8.98;5.00;;;10.00;1.00;;;;;;7367233;19;20010;-76
2023/03/21 00:52:54;;;;;;;8.20;5.68;;;10.00;1.00;;;;;;7370651;19;20014;-76
2023/03/21 00:55:23;;;;;;;8.23;5.13;;;10.00;1.00;;;;;;7370027;19;20019;-76
2023/03/21 00:57:53;;;;;;;9.07;5.20;;;10.00;1.00;;;;;;7369271;19;20010;-76
2023/03/21 01:00:31;;;;;;;7.05;4.88;;;9.90;1.00;;;;;;7368290;19;20012;-76
2023/03/21 01:03:06;;;;;;;7.95;5.32;;;9.90;1.00;;;;;;7389487;19;20029;-76
2023/03/21 01:06:05;;;;;;;7.22;5.15;;;9.90;1.00;;;;;;7371604;19;20114;-76
2023/03/21 01:08:41;;;;;;;9.65;5.75;;;9.90;1.00;;;;;;7370559;19;20043;-76
2023/03/21 01:11:28;;;;;;;12.50;7.07;;;9.90;1.00;;;;;;7368093;19;20048;-76
2023/03/21 01:13:59;;;;;;;14.82;5.95;;;9.90;1.00;;;;;;7368259;19;20907;-76
2023/03/21 01:16:49;;;;;;;10.20;6.07;;;9.90;1.00;;;;;;7371002;19;20085;-76
2023/03/21 01:19:21;;;;;;;13.25;5.85;;;9.90;1.00;;;;;;7368469;19;20024;-76
2023/03/21 01:21:58;;;;;;;11.00;6.22;;;9.90;1.00;;;;;;7369263;19;20924;-76
2023/03/21 01:24:30;;;;;;;8.40;6.55;;;9.80;1.00;;;;;;7368442;19;20470;-75
2023/03/21 01:27:03;;;;;;;12.50;6.30;;;9.80;1.00;;;;;;7391401;19;20018;-76
2023/03/21 01:29:33;;;;;;;13.40;6.35;;;9.80;1.00;;;;;;7368439;19;20086;-76
2023/03/21 01:32:03;;;;;;;11.35;5.60;;;9.80;1.00;;;;;;7369158;19;20007;-76
2023/03/21 01:34:33;;;;;;;10.07;5.97;;;9.80;1.00;;;;;;7367946;19;20191;-76
2023/03/21 01:37:03;;;;;;;8.18;5.88;;;9.80;1.00;;;;;;7369246;19;20013;-76
2023/03/21 01:39:35;;;;;;;8.32;5.85;;;9.80;1.00;;;;;;7367393;19;20044;-76
2023/03/21 01:42:05;;;;;;;10.80;6.05;;;9.90;1.00;;;;;;7389711;19;20026;-77
2023/03/21 01:44:58;;;;;;;10.15;5.97;;;9.80;1.00;;;;;;7367193;19;20014;-77
2023/03/21 01:47:28;;;;;;;9.35;6.10;;;9.90;1.00;;;;;;7370766;19;20494;-77
2023/03/21 01:50:02;;;;;;;9.55;6.50;;;9.90;1.00;;;;;;7367057;19;20021;-76
2023/03/21 01:52:36;;;;;;;9.82;5.65;;;9.90;1.00;;;;;;7368192;19;20078;-76
2023/03/21 01:55:14;;;;;;;10.07;5.82;;;9.90;1.00;;;;;;7368688;19;20026;-75
2023/03/21 01:57:48;;;;;;;8.20;5.97;;;9.90;1.00;;;;;;7369904;19;20101;-75
2023/03/21 02:00:35;;;;;;;9.52;6.15;;;9.90;1.00;;;;;;7366287;19;20668;-75
2023/03/21 02:03:15;;;;;;;11.40;5.97;;;9.80;1.00;;;;;;7387188;19;20022;-75
2023/03/21 02:06:02;;;;;;;8.57;5.65;;;9.80;1.00;;;;;;7369402;19;20022;-76
2023/03/21 02:08:34;;;;;;;12.32;6.30;;;9.80;1.00;;;;;;7367929;19;20015;-76
2023/03/21 02:11:11;;;;;;;10.32;5.35;;;9.80;1.00;;;;;;7367025;19;20050;-77
2023/03/21 02:13:42;;;;;;;9.40;5.63;;;9.80;1.00;;;;;;7365720;19;20018;-76
2023/03/21 02:16:19;;;;;;;10.27;5.70;;;9.90;1.00;;;;;;7369563;19;20010;-76
2023/03/21 02:18:55;;;;;;;9.18;5.70;;;9.80;1.00;;;;;;7367073;19;20010;-77
2023/03/21 02:21:54;;;;;;;8.30;5.80;;;9.70;1.00;;;;;;7367757;19;20021;-76
2023/03/21 02:25:09;;;;;;;11.05;6.10;;;9.80;1.00;;;;;;7364722;19;20010;-77
2023/03/21 02:27:54;;;;;;;;;;;9.80;1.00;;;;;;7366064;19;20040;-77
2023/03/21 02:30:50;;;;;;;8.55;6.60;;;9.80;1.00;;;;;;7366423;19;19978;-76
2023/03/21 02:33:52;;;;;;;8.35;6.43;;;9.80;1.00;;;;;;7366193;19;20014;-77
2023/03/21 02:36:31;;;;;;;11.18;6.68;;;9.80;1.00;;;;;;7368440;19;20053;-77
2023/03/21 02:39:10;;;;;;;10.43;6.75;;;9.80;1.00;;;;;;7389365;19;20022;-76
2023/03/21 02:41:49;;;;;;;10.68;6.35;;;9.70;1.00;;;;;;7367252;19;20015;-76
2023/03/21 02:44:25;;;;;;;7.70;6.30;;;9.60;1.00;;;;;;7364229;19;20073;-76
2023/03/21 02:47:00;;;;;;;17.05;7.43;;;9.50;1.00;;;;;;7366514;19;20402;-76
2023/03/21 02:49:41;;;;;;;9.65;6.00;;;9.50;1.00;;;;;;7366427;19;20860;-76
2023/03/21 02:52:15;;;;;;;9.35;6.05;;;9.50;1.00;;;;;;7366054;19;20010;-76
2023/03/21 02:55:12;;;;;;;11.32;7.13;;;9.50;1.00;;;;;;7365998;19;20021;-76
2023/03/21 02:57:44;;;;;;;10.68;7.07;;;9.50;1.00;;;;;;7367709;19;20031;-76
2023/03/21 03:00:20;;;;;;;9.13;6.20;;;9.50;1.00;;;;;;7365766;19;20027;-76
2023/03/21 03:02:51;;;;;;;11.57;6.47;;;9.50;1.00;;;;;;7383412;19;20018;-76
2023/03/21 03:05:42;;;;;;;8.20;6.15;;;9.50;1.00;;;;;;7366778;19;20014;-76
2023/03/21 03:08:28;;;;;;;11.40;6.25;;;9.50;1.00;;;;;;7367127;19;20014;-75
2023/03/21 03:11:28;;;;;;;10.73;6.50;;;9.50;1.00;;;;;;7365293;19;20338;-76
2023/03/21 03:14:21;;;;;;;15.50;6.90;;;9.40;1.00;;;;;;7364362;19;20014;-76
2023/03/21 03:17:24;;;;;;;10.25;6.50;;;9.40;1.00;;;;;;7364363;19;20366;-75
2023/03/21 03:20:11;;;;;;;10.65;6.75;;;9.30;1.00;;;;;;7365598;19;20038;-75
2023/03/21 03:22:54;;;;;;;10.13;6.32;;;9.40;1.00;;;;;;7364021;19;20007;-76
2023/03/21 03:25:29;;;;;;;9.52;6.40;;;9.40;1.00;;;;;;7366052;19;20069;-76
2023/03/21 03:28:19;;;;;;;10.02;6.00;;;9.40;1.00;;;;;;7366885;19;20749;-76
2023/03/21 03:30:51;;;;;;;8.45;6.40;;;9.40;1.00;;;;;;7364085;19;20014;-75
2023/03/21 03:33:40;;;;;;;11.45;7.00;;;9.30;1.00;;;;;;7363303;19;20011;-75
2023/03/21 03:36:14;;;;;;;9.95;6.28;;;9.40;1.00;;;;;;7388095;19;20019;-75
2023/03/21 03:39:03;;;;;;;9.05;6.85;;;9.40;1.00;;;;;;7365258;19;20011;-75
2023/03/21 03:41:35;;;;;;;10.05;6.55;;;9.50;1.00;;;;;;7365242;19;20012;-75
2023/03/21 03:44:28;;;;;;;10.35;6.75;;;9.50;1.00;;;;;;7362590;19;20022;-76
2023/03/21 03:47:02;;;;;;;10.32;6.53;;;9.50;1.00;;;;;;7363528;19;20015;-73
2023/03/21 03:49:37;;;;;;;10.48;6.80;;;9.50;1.00;;;;;;7364981;19;20343;-73
2023/03/21 03:52:12;;;;;;;9.02;6.68;;;9.40;1.00;;;;;;7364426;19;20014;-73
2023/03/21 03:54:42;;;;;;;;;;;9.40;1.00;;;;;;7364662;19;20073;-75
2023/03/21 03:57:14;;;;;;;9.02;5.90;;;9.40;1.00;;;;;;7366060;19;19929;-73
2023/03/21 03:59:48;;;;;;;10.60;6.80;;;9.40;1.00;;;;;;7386397;19;20015;-75
2023/03/21 04:02:19;;;;;;;10.20;6.70;;;9.30;1.00;;;;;;7363129;19;20015;-75
2023/03/21 04:04:51;;;;;;;9.57;6.57;;;9.30;1.00;;;;;;7364989;19;20343;-75
2023/03/21 04:07:21;;;;;;;11.40;6.32;;;9.30;1.00;;;;;;7364275;19;20575;-75
2023/03/21 04:09:51;;;;;;;8.93;6.53;;;9.30;1.00;;;;;;7362836;19;20019;-75
2023/03/21 04:12:21;;;;;;;10.07;6.43;;;9.20;1.00;;;;;;7363895;19;20010;-75
2023/03/21 04:14:53;;;;;;;10.98;6.38;;;9.30;1.00;;;;;;7388647;19;20017;-75
2023/03/21 04:17:31;;;;;;;9.27;6.53;;;9.20;1.00;;;;;;7371358;19;20082;-75
2023/03/21 04:20:04;;;;;;;8.77;6.57;;;9.20;1.00;;;;;;7368754;19;20014;-75
2023/03/21 04:22:45;;;;;;;8.48;6.78;;;9.20;1.00;;;;;;7370391;19;20482;-74
2023/03/21 04:25:15;;;;;;;13.15;6.95;;;9.20;1.00;;;;;;7372429;19;20014;-74
2023/03/21 04:28:01;;;;;;;12.52;7.47;;;9.10;1.00;;;;;;7371409;19;20014;-75
2023/03/21 04:30:33;;;;;;;13.68;7.75;;;9.10;1.00;;;;;;7370434;19;20106;-75
2023/03/21 04:33:03;;;;;;;12.73;7.32;;;9.10;1.00;;;;;;7392073;19;20094;-74
2023/03/21 04:35:33;;;;;;;11.98;7.45;;;9.10;1.10;;;;;;7371995;19;20006;-75
2023/03/21 04:38:06;;;;;;;10.48;6.85;;;9.10;1.40;;;;;;7370349;19;20033;-75
2023/03/21 04:40:35;;;;;;;11.73;6.78;;;9.10;1.30;;;;;;7370660;19;20078;-74
2023/03/21 04:43:05;;;;;;;9.70;6.65;;;9.10;1.50;;;;;;7369720;19;20027;-75
2023/03/21 04:45:38;;;;;;;10.75;7.45;;;9.10;1.60;;;;;;7370623;19;20021;-75
2023/03/21 04:48:08;;;;;;;12.15;7.00;;;9.10;1.40;;;;;;7393065;19;20018;-75
2023/03/21 04:50:37;;;;;;;14.15;6.57;;;9.10;2.00;;;;;;7369079;19;20011;-75
2023/03/21 04:53:07;;;;;;;10.35;6.80;;;9.00;2.10;;;;;;7367870;19;20083;-75
2023/03/21 04:55:38;;;;;;;11.43;6.65;;;9.00;2.70;;;;;;7370074;19;20034;-74
2023/03/21 04:58:08;;;;;;;11.88;6.82;;;9.00;3.00;;;;;;7370353;19;20474;-75
2023/03/21 05:00:40;;;;;;;9.23;6.68;;;9.00;2.80;;;;;;7367655;19;20070;-75
2023/03/21 05:03:18;;;;;;;11.73;6.55;;;9.00;3.10;;;;;;7391457;19;20010;-73
2023/03/21 05:05:48;;;;;;;10.82;6.15;;;9.00;2.90;;;;;;7370945;19;20015;-75
2023/03/21 05:08:18;;;;;;;13.70;6.97;;;9.00;3.20;;;;;;7368811;19;20026;-76
2023/03/21 05:10:48;;;;;;;9.85;6.97;;;9.00;3.30;;;;;;7368662;19;20013;-76
2023/03/21 05:13:18;;;;;;;9.68;6.90;;;9.00;3.60;;;;;;7369935;19;20706;-76
2023/03/21 05:15:50;;;;;;;9.93;6.93;;;9.10;3.00;;;;;;7368961;19;20320;-76
2023/03/21 05:18:23;;;;;;;10.57;6.95;;;9.10;2.70;;;;;;7370027;19;20025;-76
2023/03/21 05:20:55;;;;;;;7.93;6.28;;;9.20;2.20;;;;;;7389787;19;20031;-76
2023/03/21 05:23:30;;;;;;;9.35;6.35;;;9.20;1.80;;;;;;7366758;19;20021;-76
2023/03/21 05:26:00;;;;;;;12.70;6.55;;;9.10;1.80;;;;;;7368614;19;20086;-75
2023/03/21 05:28:30;;;;;;;8.82;6.50;;;9.20;1.90;;;;;;7370183;19;20011;-76
2023/03/21 05:31:02;;;;;;;9.48;6.45;;;9.10;2.10;;;;;;7365930;19;20505;-75
2023/03/21 05:33:32;;;;;;;13.85;6.95;;;9.10;2.50;;;;;;7368639;19;20021;-75
2023/03/21 05:36:02;;;;;;;9.65;6.15;;;9.10;2.70;;;;;;7392124;19;20010;-76
2023/03/21 05:38:32;;;;;;;9.05;6.28;;;9.00;3.00;;;;;;7368994;19;20645;-76
2023/03/21 05:41:02;;;;;;;10.85;6.53;;;9.00;3.00;;;;;;7366334;19;20018;-75
2023/03/21 05:43:32;;;;;;;8.95;6.45;;;9.00;3.30;;;;;;7366967;19;20014;-76
2023/03/21 05:46:05;;;;;;;10.23;6.75;;;9.00;3.20;;;;;;7368907;19;20019;-76
2023/03/21 05:48:35;;;;;;;9.45;6.55;;;9.10;3.50;;;;;;7369466;19;20018;-76
2023/03/21 05:51:05;;;;;;;11.38;6.90;;;9.10;2.80;;;;;;7389948;19;20025;-76
2023/03/21 05:53:35;;;;;;;10.07;6.28;;;9.10;3.00;;;;;;7365882;19;20071;-76
2023/03/21 05:56:05;;;;;;;9.98;6.53;;;9.10;3.00;;;;;;7369279;19;20011;-76
2023/03/21 05:58:35;;;;;;;10.82;6.75;;;9.20;3.30;;;;;;7368753;19;20030;-76
2023/03/21 06:01:09;;;;;;;10.32;6.10;;;9.20;3.30;;;;;;7367384;19;20795;-76
2023/03/21 06:03:39;;;;;;;11.27;6.53;;;9.20;2.90;;;;;;7366062;19;20010;-77
2023/03/21 06:06:10;;;;;;;7.20;5.53;;;9.30;3.10;;;;;;7390791;19;20291;-77
2023/03/21 06:08:40;;;;;;;12.48;6.13;;;9.30;2.10;;;;;;7367529;19;20034;-76
2023/03/21 06:11:20;;;;;;;9.40;6.28;;;9.40;1.40;;;;;;7366717;19;20106;-76
2023/03/21 06:13:50;;;;;;;9.18;5.82;;;9.40;1.00;;;;;;7364592;19;20015;-76
2023/03/21 06:16:22;;;;;;;9.68;5.45;;;9.50;1.00;;;;;;7367494;19;20082;-75
2023/03/21 06:18:52;;;;;;;9.90;6.15;;;9.40;1.00;;;;;;7367376;19;20021;-76
2023/03/21 06:21:24;;;;;;;7.57;5.18;;;9.50;1.00;;;;;;7367503;19;20002;-77
2023/03/21 06:23:55;;;;;;;8.18;5.75;;;9.60;1.00;;;;;;7386332;19;20018;-75
2023/03/21 06:26:25;;;;;;;8.98;5.75;;;9.60;1.00;;;;;;7368507;19;20002;-75
2023/03/21 06:28:55;;;;;;;15.27;5.93;;;9.70;1.00;;;;;;7365911;19;20010;-75
2023/03/21 06:31:28;;;;;;;8.85;5.07;;;9.80;1.00;;;;;;7365902;19;20034;-75
2023/03/21 06:33:58;;;;;;;9.15;5.32;;;9.70;1.00;;;;;;7365002;19;20018;-75
2023/03/21 06:36:27;;;;;;;12.52;5.57;;;9.80;1.00;;;;;;7367012;19;20020;-76
2023/03/21 06:38:57;;;;;;;6.43;4.47;;;9.80;1.00;;;;;;7386319;19;20010;-76
2023/03/21 06:41:27;;;;;;;10.98;5.15;;;9.90;1.00;;;;;;7366186;19;20022;-76
2023/03/21 06:43:57;;;;;;;7.80;5.65;;;9.90;1.00;;;;;;7361704;19;20010;-76
2023/03/21 06:46:31;;;;;;;10.00;5.43;;;9.80;1.00;;;;;;7367217;19;20058;-74
2023/03/21 06:49:01;;;;;;;9.65;5.45;;;9.90;1.00;;;;;;7365713;19;20021;-76
2023/03/21 06:51:31;;;;;;;7.63;5.43;;;10.00;1.00;;;;;;7365412;19;20115;-76
2023/03/21 06:54:00;;;;;;;8.93;5.38;;;10.00;1.00;;;;;;7385483;19;20014;-75
2023/03/21 06:56:30;;;;;;;12.43;5.03;;;10.10;1.00;;;;;;7366470;19;20372;-75
2023/03/21 06:59:00;;;;;;;9.40;5.40;;;10.20;1.00;;;;;;7364320;19;20011;-76
2023/03/21 07:01:33;;;;;;;8.30;5.57;;;10.30;1.00;;;;;;7366215;19;20038;-75
2023/03/21 07:04:03;;;;;;;13.55;5.93;;;10.40;1.00;;;;;;7363756;19;20546;-75
2023/03/21 07:06:33;;;;;;;8.27;5.80;;;10.50;1.00;;;;;;7363960;19;20054;-76
2023/03/21 07:09:04;;;;;;;9.18;6.00;;;10.60;1.00;;;;;;7388146;19;20025;-76
2023/03/21 07:11:34;;;;;;;8.95;6.53;;;10.70;1.00;;;;;;7365360;19;20015;-75
2023/03/21 07:14:04;;;;;;;12.15;6.60;;;10.70;1.00;;;;;;7363589;19;20010;-75
2023/03/21 07:16:36;;;;;;;9.60;6.55;;;10.90;1.00;;;;;;7366618;19;20014;-76
2023/03/21 07:19:06;;;;;;;12.98;7.32;;;10.80;1.00;;;;;;7364679;19;20011;-75
2023/03/21 07:21:36;;;;;;;12.65;7.10;;;11.00;1.00;;;;;;7364339;19;20031;-76
2023/03/21 07:24:06;;;;;;;10.57;7.05;;;10.70;1.00;;;;;;7386373;19;20498;-75
2023/03/21 07:26:36;;;;;;;10.00;6.15;;;10.70;1.00;;;;;;7364218;19;20011;-76
2023/03/21 07:29:06;;;;;;;11.05;6.95;;;10.80;1.00;;;;;;7363878;19;20377;-75
2023/03/21 07:31:38;;;;;;;8.20;6.43;;;11.00;1.00;;;;;;7363009;19;20017;-76
2023/03/21 07:34:08;;;;;;;11.60;7.18;;;11.00;1.00;;;;;;7365515;19;20015;-76
2023/03/21 07:36:38;;;;;;;12.18;7.10;;;11.20;1.00;;;;;;7363877;19;20093;-74
2023/03/21 07:39:08;;;;;;;11.27;6.80;;;11.20;1.00;;;;;;7386715;19;20025;-76
2023/03/21 07:41:38;;;;;;;11.48;6.78;;;11.20;1.00;;;;;;7364333;19;20797;-75
2023/03/21 07:44:07;;;;;;;9.65;6.22;;;11.10;1.00;;;;;;7362541;19;20498;-76
2023/03/21 07:46:40;;;;;;;14.13;6.47;;;11.30;1.00;;;;;;7363528;19;20467;-75
2023/03/21 07:49:10;;;;;;;9.43;6.60;;;11.50;1.00;;;;;;7365332;19;20011;-76
2023/03/21 07:51:39;;;;;;;12.77;6.82;;;11.40;1.00;;;;;;7370465;19;20090;-75
2023/03/21 07:54:09;;;;;;;10.98;6.95;;;11.50;1.00;;;;;;7392999;19;20502;-76
2023/03/21 07:56:40;;;;;;;10.50;6.28;;;11.70;1.00;;;;;;7371804;19;20356;-75
2023/03/21 07:59:10;;;;;;;7.88;4.97;;;11.80;1.00;;;;;;7370014;19;20031;-77
2023/03/21 08:01:42;;;;;;;8.55;5.28;;;11.90;1.00;;;;;;7371315;19;20158;-76
2023/03/21 08:04:12;;;;;;;9.52;5.70;;;11.30;1.00;;;;;;7370775;19;20007;-76
2023/03/21 08:06:42;;;;;;;11.23;7.72;;;11.80;1.00;;;;;;7368515;19;20010;-75
2023/03/21 08:09:13;;;;;;;9.40;5.72;;;12.00;1.00;;;;;;7371193;19;20378;-73
2023/03/21 08:11:42;;;;;;;9.77;5.13;;;12.20;1.00;;;;;;7393677;19;20022;-76
2023/03/21 08:14:12;;;;;;;8.55;4.70;;;12.10;1.00;;;;;;7369428;19;20033;-76
2023/03/21 08:16:45;;;;;;;7.40;4.63;;;12.50;1.00;;;;;;7372322;19;20086;-76
2023/03/21 08:19:14;;;;;;;6.72;4.78;;;12.70;1.00;;;;;;7370532;19;20033;-76
2023/03/21 08:21:44;;;;;;;9.80;5.20;;;12.70;1.00;;;;;;7369528;19;20091;-75
2023/03/21 08:24:14;;;;;;;9.52;4.50;;;12.60;1.00;;;;;;7371480;19;20010;-76
2023/03/21 08:26:44;;;;;;;6.90;4.00;;;12.80;1.00;;;;;;7391287;19;20014;-77
2023/03/21 08:29:15;;;;;;;6.63;3.42;;;12.90;1.00;;;;;;7369042;19;21640;-76
2023/03/21 08:31:47;;;;;;;5.50;3.33;;;12.80;1.00;;;;;;7370421;19;20019;-76
2023/03/21 08:34:18;;;;;;;6.78;3.17;;;13.00;1.00;;;;;;7370874;19;20065;-76
2023/03/21 08:36:48;;;;;;;4.32;3.10;;;13.10;1.00;;;;;;7370998;19;20447;-76
2023/03/21 08:39:18;;;;;;;6.00;3.92;;;12.90;1.00;;;;;;7371226;19;20022;-73
2023/03/21 08:41:47;;;;;;;4.30;2.75;;;13.00;1.00;;;;;;7392178;19;20123;-76
2023/03/21 08:44:19;;;;;;;4.57;3.10;;;13.10;1.00;;;;;;7365425;19;20078;-76
2023/03/21 08:46:54;;;;;;;11.90;3.13;;;13.30;1.00;;;;;;7367603;19;20569;-76
2023/03/21 08:49:24;;;;;;;6.00;3.25;;;13.40;1.00;;;;;;7369840;19;20089;-75
2023/03/21 08:51:57;;;;;;;6.75;3.08;;;13.60;1.00;;;;;;7369245;19;20020;-75
2023/03/21 08:54:27;;;;;;;4.53;3.13;;;13.70;1.00;;;;;;7369991;19;20015;-75
2023/03/21 08:56:57;;;;;;;5.68;2.97;;;13.50;1.00;;;;;;7391804;19;20015;-74
2023/03/21 08:59:26;;;;;;;4.82;3.40;;;13.20;1.00;;;;;;7367550;19;20039;-75
2023/03/21 09:01:59;;;;;;;9.23;3.90;;;13.00;1.00;;;;;;7366938;19;20014;-75
2023/03/21 09:04:29;;;;;;;4.03;2.75;;;12.80;1.00;;;;;;7367064;19;20522;-75
2023/03/21 09:07:00;;;;;;;5.03;3.75;;;13.20;1.00;;;;;;7368765;19;20078;-76
2023/03/21 09:09:30;;;;;;;4.32;3.08;;;13.40;1.00;;;;;;7367923;19;20023;-75
2023/03/21 09:12:00;;;;;;;7.47;3.70;;;13.10;1.00;;;;;;7390587;19;20015;-76
2023/03/21 09:14:29;;;;;;;7.50;3.80;;;13.60;1.00;;;;;;7369328;19;20014;-75
2023/03/21 09:17:02;;;;;;;5.97;3.05;;;13.20;1.00;;;;;;7369540;19;20018;-75
2023/03/21 09:19:33;;;;;;;7.63;3.10;;;13.70;1.00;;;;;;7366788;19;20006;-75
2023/03/21 09:22:03;;;;;;;6.93;5.18;;;14.10;1.00;;;;;;7368593;19;20022;-75
2023/03/21 09:24:33;;;;;;;7.13;3.55;;;14.10;1.00;;;;;;7370035;19;20018;-75
2023/03/21 09:27:03;;;;;;;5.50;3.30;;;13.80;1.00;;;;;;7389912;19;20538;-75
2023/03/21 09:29:33;;;;;;;4.90;3.35;;;14.10;1.00;;;;;;7366627;19;20007;-75
2023/03/21 09:32:05;;;;;;;4.40;3.40;;;13.90;1.00;;;;;;7367820;19;20010;-75
2023/03/21 09:34:38;;;;;;;5.30;3.22;;;13.50;1.00;;;;;;7368764;19;20469;-75
2023/03/21 09:37:12;;;;;;;6.30;3.58;;;13.40;1.00;;;;;;7370052;19;20015;-74
2023/03/21 09:39:43;;;;;;;3.85;2.80;;;13.70;1.00;;;;;;7365898;19;20014;-76
2023/03/21 09:42:23;;;;;;;10.80;3.35;;;13.80;1.00;;;;;;7368278;19;20077;-76
2023/03/21 09:45:05;;;;;;;6.25;3.20;;;13.90;1.00;;;;;;7390119;19;20039;-75
2023/03/21 09:47:44;;;;;;;5.05;3.28;;;13.70;1.00;;;;;;7367275;19;20038;-75
2023/03/21 09:50:19;;;;;;;5.70;3.50;;;13.70;1.00;;;;;;7365069;19;20597;-75
2023/03/21 09:52:55;;;;;;;5.00;2.92;;;14.30;1.00;;;;;;7367600;19;20078;-76
2023/03/21 09:55:29;;;;;;;5.15;2.92;;;14.60;1.00;;;;;;7366336;19;20077;-75
2023/03/21 09:58:06;;;;;;;6.28;3.45;;;13.90;1.00;;;;;;7366171;19;20088;-74
2023/03/21 10:00:42;;;;;;;7.90;3.08;;;14.70;1.00;;;;;;7365753;19;20015;-75
2023/03/21 10:03:23;;;;;;;6.78;3.47;;;14.80;1.00;;;;;;7374972;19;20022;-75
2023/03/21 10:05:56;;;;;;;6.75;2.70;;;14.90;1.00;;;;;;7390503;19;20010;-75
2023/03/21 10:08:29;;;;;;;6.35;3.63;;;14.90;1.00;;;;;;7367463;19;20028;-75
2023/03/21 10:11:04;;;;;;;3.03;2.57;;;14.80;1.00;;;;;;7366594;19;20010;-76
2023/03/21 10:13:41;;;;;;;7.10;2.40;;;14.70;1.00;;;;;;7365921;19;20231;-76
2023/03/21 10:16:16;;;;;;;3.78;3.03;;;14.70;1.00;;;;;;7368582;19;20025;-74
2023/03/21 10:18:52;;;;;;;5.60;2.80;;;14.40;1.00;;;;;;7364907;19;20030;-75
2023/03/21 10:21:25;;;;;;;4.45;3.13;;;15.00;1.00;;;;;;7367659;19;20020;-76
2023/03/21 10:24:20;;;;;;;8.70;5.05;;;15.30;1.00;;;;;;7366429;19;20473;-75
2023/03/21 10:26:52;;;;;;;5.78;3.90;;;15.70;1.00;;;;;;7388447;19;20018;-74
2023/03/21 10:29:25;;;;;;;10.60;6.95;;;15.70;1.00;;;;;;7364483;19;20010;-75
2023/03/21 10:31:56;;;;;;;7.38;4.22;;;16.00;1.00;;;;;;7367248;19;20071;-73
2023/03/21 10:34:34;;;;;;;3.95;2.88;;;16.10;1.00;;;;;;7366143;19;20031;-76
2023/03/21 10:37:06;;;;;;;5.18;3.10;;;16.40;1.00;;;;;;7367737;19;20094;-75
2023/03/21 10:39:39;;;;;;;6.35;3.50;;;16.50;1.00;;;;;;7365195;19;20029;-76
2023/03/21 10:42:20;;;;;;;3.80;2.92;;;15.80;1.00;;;;;;7387562;19;20023;-76
2023/03/21 10:44:52;;;;;;;8.27;3.30;;;15.40;1.00;;;;;;7365892;19;20014;-74
2023/03/21 10:47:23;;;;;;;4.75;3.40;;;15.60;1.00;;;;;;7366571;19;20519;-75
2023/03/21 10:49:56;;;;;;;4.53;3.22;;;15.80;1.00;;;;;;7363648;19;20451;-75
2023/03/21 10:52:47;;;;;;;7.82;3.90;;;16.10;1.00;;;;;;7364922;19;20010;-75
2023/03/21 10:55:24;;;;;;;7.03;3.20;;;15.90;1.00;;;;;;7366200;19;20173;-76
2023/03/21 10:58:06;;;;;;;8.75;3.33;;;16.20;1.00;;;;;;7365411;19;20018;-77
2023/03/21 11:00:40;;;;;;;4.93;3.10;;;16.20;1.00;;;;;;7364592;19;20010;-75
2023/03/21 11:03:21;;;;;;;5.07;2.90;;;15.60;1.00;;;;;;7387484;19;20018;-75
2023/03/21 11:05:57;;;;;;;5.53;3.30;;;15.70;1.00;;;;;;7366884;19;20014;-75
2023/03/21 11:08:27;;;;;;;6.97;3.97;;;15.50;1.00;;;;;;7363580;19;20007;-75
2023/03/21 11:11:03;;;;;;;12.73;9.30;;;15.90;1.00;;;;;;7363649;19;20018;-76
2023/03/21 11:13:40;;;;;;;14.90;11.68;;;16.40;1.00;;;;;;7364587;19;20516;-75
2023/03/21 11:16:12;;;;;;;3.95;3.00;;;16.70;1.00;;;;;;7367639;19;20010;-76
2023/03/21 11:18:44;;;;;;;5.50;3.08;;;16.50;1.00;;;;;;7363862;19;20015;-75
2023/03/21 11:21:18;;;;;;;8.00;6.35;;;16.60;1.00;;;;;;7365459;19;20042;-76
2023/03/21 11:23:51;;;;;;;4.32;2.40;;;16.70;1.00;;;;;;7387726;19;20025;-76
2023/03/21 11:26:26;;;;;;;3.65;2.17;;;16.70;1.00;;;;;;7379605;19;20073;-77
2023/03/21 11:28:57;;;;;;;4.15;2.35;;;15.90;1.00;;;;;;7379261;19;20021;-75
2023/03/21 11:31:40;;;;;;;11.63;7.80;;;16.00;1.00;;;;;;7377712;19;20111;-75
2023/03/21 11:34:25;;;;;;;11.70;3.80;;;16.40;1.00;;;;;;7377564;19;20011;-75
2023/03/21 11:37:01;;;;;;;6.05;2.72;;;16.40;1.00;;;;;;7379909;19;20434;-74
2023/03/21 11:39:39;;;;;;;6.47;3.95;;;16.40;1.00;;;;;;7377975;19;20679;-73
2023/03/21 11:42:29;;;;;;;5.25;3.47;;;16.40;1.00;;;;;;7398393;19;20026;-74
2023/03/21 11:45:04;;;;;;;3.90;2.10;;;16.40;1.00;;;;;;7379029;19;20692;-74
2023/03/21 11:47:33;;;;;;;3.83;2.05;;;15.80;1.00;;;;;;7377947;19;20111;-75
2023/03/21 11:50:03;;;;;;;4.07;2.40;;;16.00;1.00;;;;;;7375991;19;20014;-75
2023/03/21 11:52:43;;;;;;;2.53;2.22;;;16.30;1.00;;;;;;7376284;19;20018;-74
2023/03/21 11:55:33;;;;;;;8.05;2.33;;;16.60;1.00;;;;;;7378459;19;20021;-73
2023/03/21 11:58:15;;;;;;;3.10;2.20;;;16.30;1.00;;;;;;7379007;19;20552;-73
2023/03/21 12:00:53;;;;;;;3.63;2.65;;;16.10;1.00;;;;;;7376851;19;20015;-74
2023/03/21 12:03:56;;;;;;;3.60;2.60;;;16.10;1.00;;;;;;7374096;19;20014;-73
2023/03/21 12:06:31;;;;;;;3.72;2.40;;;16.00;1.00;;;;;;7376434;19;20049;-76
2023/03/21 12:09:17;;;;;;;5.63;2.92;;;15.80;1.00;;;;;;7398068;19;20014;-73
2023/03/21 12:11:58;;;;;;;4.30;3.10;;;15.70;1.00;;;;;;7376971;19;20034;-74
2023/03/21 12:14:37;;;;;;;4.90;2.95;;;15.50;1.00;;;;;;7375996;19;20226;-73
2023/03/21 12:17:18;;;;;;;4.85;3.08;;;15.40;1.00;;;;;;7377124;19;20494;-76
2023/03/21 12:20:13;;;;;;;4.70;2.78;;;15.50;1.00;;;;;;7375894;19;20109;-74
2023/03/21 12:22:52;;;;;;;8.45;2.90;;;15.70;1.00;;;;;;7374836;19;20018;-74
2023/03/21 12:25:30;;;;;;;6.35;2.90;;;15.60;1.00;;;;;;7376425;19;20036;-76
2023/03/21 12:28:15;;;;;;;3.03;2.42;;;15.60;1.00;;;;;;7377266;19;20018;-76
2023/03/21 12:31:08;;;;;;;4.30;2.53;;;15.80;1.00;;;;;;7376194;19;20016;-76
2023/03/21 12:33:52;;;;;;;8.25;3.00;;;15.70;1.00;;;;;;7375179;19;20486;-77
2023/03/21 12:36:37;;;;;;;4.80;3.20;;;15.70;1.00;;;;;;7372966;19;20039;-77
2023/03/21 12:39:21;;;;;;;4.18;2.80;;;15.70;1.00;;;;;;7390575;19;20285;-75
2023/03/21 12:42:18;;;;;;;6.68;2.70;;;15.50;1.00;;;;;;7370145;19;20012;-76
2023/03/21 12:44:53;;;;;;;5.93;2.45;;;15.40;1.00;;;;;;7368556;19;20474;-77
2023/03/21 12:47:27;;;;;;;4.18;2.30;;;15.60;1.00;;;;;;7368125;19;20022;-77
2023/03/21 12:50:02;;;;;;;5.28;2.15;;;15.70;1.00;;;;;;7368660;19;20014;-76
2023/03/21 12:52:35;;;;;;;7.07;2.10;;;16.00;1.00;;;;;;7365065;19;20015;-77
2023/03/21 12:55:12;;;;;;;4.53;2.15;;;16.10;1.00;;;;;;7367057;19;20049;-75
2023/03/21 12:57:49;;;;;;;4.10;2.00;;;16.00;1.00;;;;;;7370149;19;20463;-75
2023/03/21 13:00:34;;;;;;;5.72;2.72;;;15.80;1.00;;;;;;7364832;19;20030;-75
2023/03/21 13:03:07;;;;;;;5.10;2.67;;;15.70;1.00;;;;;;7386297;19;20574;-76
2023/03/21 13:05:40;;;;;;;10.07;2.72;;;15.80;1.00;;;;;;7369040;19;20025;-71
2023/03/21 13:08:17;;;;;;;29.20;4.23;;;15.90;1.00;;;;;;7366500;19;20013;-74
2023/03/21 13:10:48;;;;;;;240.88;13.63;;;15.90;1.00;;;;;;7366701;19;20014;-72
2023/03/21 13:13:28;;;;;;;6.63;2.67;;;16.10;1.00;;;;;;7367297;19;20009;-70
2023/03/21 13:16:05;;;;;;;19.55;3.50;;;16.30;1.00;;;;;;7368405;19;20026;-69
2023/03/21 13:18:52;;;;;;;38.42;4.88;;;16.30;1.00;;;;;;7366721;19;20011;-70
2023/03/21 13:21:32;;;;;;;5.45;2.65;;;16.40;1.00;;;;;;7365374;19;20022;-75
2023/03/21 13:24:05;;;;;;;5.68;3.40;;;16.20;1.00;;;;;;7389722;19;20032;-80
2023/03/21 13:26:40;;;;;;;7.00;3.30;;;16.00;1.00;;;;;;7369761;19;20019;-74
2023/03/21 13:29:25;;;;;;;9.07;2.80;;;15.90;1.00;;;;;;7367889;19;20104;-72
2023/03/21 13:31:57;;;;;;;6.25;2.67;;;15.90;1.00;;;;;;7366442;19;20010;-79
2023/03/21 13:34:28;;;;;;;10.07;2.60;;;15.80;1.00;;;;;;7367796;19;20091;-73
2023/03/21 13:37:00;;;;;;;21.45;3.70;;;15.70;1.00;;;;;;7368002;19;20090;-70
2023/03/21 13:39:30;;;;;;;5.43;3.05;;;15.70;1.00;;;;;;7366885;19;20018;-70